Time;durP1;ratioP1;P1;durP2;ratioP2;P2;SDS_P1;SDS_P2;PMS_P1;PMS_P2;Temp;Humidity;BMP_temperature;BMP_pressure;BME280_temperature;BME280_humidity;BME280_pressure;Samples;Min_cycle;Max_cycle;Signal;HPM_P1;HPM_P2
2022/01/20 00:00:19;;;;;;;63.90;40.35;;;;;;;-2.26;100.00;101129.44;5032483;28;20037;-64
2022/01/20 00:02:55;;;;;;;63.72;36.60;;;;;;;-2.23;100.00;101144.47;5032061;28;20476;-63
2022/01/20 00:08:13;;;;;;;37.33;22.67;;;;;;;-2.74;100.00;101108.28;5032472;28;20456;-64
2022/01/20 00:27:09;;;;;;;63.75;29.92;;;;;;;-2.91;100.00;101148.97;5032232;28;20075;-61
2022/01/20 00:30:05;;;;;;;52.00;26.45;;;;;;;-3.38;100.00;101150.94;5031748;28;20087;-62
2022/01/20 00:32:27;;;;;;;50.33;26.08;;;;;;;-2.47;100.00;101148.41;5031789;28;20487;-64
2022/01/20 00:37:20;;;;;;;34.53;21.50;;;;;;;-3.08;100.00;101139.06;5032173;28;20034;-64
2022/01/20 00:39:46;;;;;;;39.30;22.20;;;;;;;-3.06;100.00;101149.91;5031679;28;20033;-62
2022/01/20 00:42:12;;;;;;;39.25;22.63;;;;;;;-2.69;100.00;101146.63;5031465;28;20392;-62
2022/01/20 00:44:37;;;;;;;49.50;25.02;;;;;;;-3.26;100.00;101145.66;5030862;28;20053;-62
2022/01/20 00:47:03;;;;;;;42.13;24.42;;;;;;;-2.86;100.00;101111.88;5031442;28;20052;-62
2022/01/20 00:49:28;;;;;;;40.00;22.38;;;;;;;-3.24;100.00;101121.75;5031777;28;20518;-64
2022/01/20 00:51:54;;;;;;;38.90;20.85;;;;;;;-2.93;100.00;101139.75;5031418;28;20132;-62
2022/01/20 00:54:20;;;;;;;41.83;21.63;;;;;;;-3.15;100.00;101123.00;5031862;28;20033;-64
2022/01/20 00:56:45;;;;;;;36.10;20.92;;;;;;;-3.42;100.00;101128.34;5030623;28;20036;-62
2022/01/20 00:59:11;;;;;;;32.40;20.58;;;;;;;-3.77;100.00;101102.75;5063267;28;20029;-62
2022/01/20 01:01:36;;;;;;;29.15;18.83;;;;;;;-3.30;100.00;101065.16;5051075;22;22464;-66
2022/01/20 01:04:02;;;;;;;34.35;19.15;;;;;;;-3.18;100.00;101122.03;4308445;28;10000522;-66
2022/01/20 01:09:08;;;;;;;28.10;17.10;;;;;;;-3.27;100.00;101064.44;5007933;28;20476;-66
2022/01/20 01:11:35;;;;;;;28.45;17.35;;;;;;;-3.56;100.00;101050.72;5006693;28;20045;-67
2022/01/20 01:14:03;;;;;;;32.55;19.17;;;;;;;-3.78;100.00;101008.28;5008480;28;20034;-68
2022/01/20 01:20:02;;;;;;;33.80;19.58;;;;;;;-3.33;100.00;101094.84;5006464;28;20124;-65
2022/01/20 01:24:42;;;;;;;33.90;19.48;;;;;;;-3.29;100.00;101042.03;5007561;28;20030;-67
2022/01/20 01:27:09;;;;;;;26.60;15.13;;;;;;;-3.71;100.00;100998.72;5007271;28;20117;-65
2022/01/20 01:32:25;;;;;;;31.23;18.67;;;;;;;-3.31;100.00;101077.53;5007858;28;20163;-65
2022/01/20 01:34:52;;;;;;;36.33;19.63;;;;;;;-4.00;100.00;100990.72;5007719;28;20034;-65
2022/01/20 01:39:50;;;;;;;33.92;18.20;;;;;;;-3.17;100.00;101062.41;5007297;28;20112;-65
2022/01/20 01:42:23;;;;;;;29.42;16.88;;;;;;;-3.18;100.00;101025.94;5005744;28;20160;-65
2022/01/20 01:44:48;;;;;;;30.60;17.17;;;;;;;-3.25;100.00;101061.25;5007545;28;20025;-65
2022/01/20 01:47:14;;;;;;;25.98;17.20;;;;;;;-2.68;100.00;101056.31;5005970;28;20030;-65
2022/01/20 01:49:39;;;;;;;28.63;16.35;;;;;;;-3.09;100.00;101057.81;5007087;28;20038;-65
2022/01/20 01:52:05;;;;;;;25.08;15.73;;;;;;;-3.29;100.00;100977.41;5007085;28;20044;-65
2022/01/20 01:54:32;;;;;;;30.35;16.88;;;;;;;-3.20;100.00;100986.88;5007010;28;20037;-66
2022/01/20 01:56:58;;;;;;;27.85;16.45;;;;;;;-3.49;100.00;100999.66;5007190;28;20077;-65
2022/01/20 01:59:24;;;;;;;26.23;15.82;;;;;;;-2.94;100.00;101036.06;5007369;28;20034;-65
2022/01/20 02:01:49;;;;;;;28.05;15.32;;;;;;;-3.38;100.00;100941.34;5006933;28;20037;-65
2022/01/20 02:04:18;;;;;;;29.85;15.98;;;;;;;-3.16;100.00;100984.59;5006633;28;20057;-66
2022/01/20 02:19:57;;;;;;;31.40;16.35;;;;;;;-2.60;100.00;100988.59;5011026;28;20491;-67
2022/01/20 02:22:23;;;;;;;27.25;15.65;;;;;;;-3.15;100.00;100941.53;5010746;28;20041;-66
2022/01/20 02:24:49;;;;;;;25.17;15.80;;;;;;;-2.30;100.00;101003.13;5009367;28;20042;-66
2022/01/20 02:27:14;;;;;;;30.77;15.82;;;;;;;-3.00;100.00;100956.25;5009142;28;20041;-66
2022/01/20 02:29:41;;;;;;;29.02;16.77;;;;;;;-2.88;100.00;100954.28;5009817;28;20034;-66
2022/01/20 02:32:07;;;;;;;44.40;24.83;;;;;;;-2.65;100.00;100946.09;5009073;28;20483;-65
2022/01/20 02:34:32;;;;;;;39.95;23.95;;;;;;;-3.20;100.00;100947.09;5010856;28;20023;-66
2022/01/20 02:37:02;;;;;;;56.88;32.08;;;;;;;-2.37;100.00;100991.22;5011201;28;20033;-66
2022/01/20 02:44:54;;;;;;;46.20;26.48;;;;;;;-3.01;100.00;100954.56;5010376;28;20495;-65
2022/01/20 02:47:22;;;;;;;43.25;26.10;;;;;;;-3.41;100.00;100912.28;5010597;28;20041;-66
2022/01/20 02:49:49;;;;;;;39.45;24.48;;;;;;;-3.35;100.00;100880.22;5010403;28;20776;-65
2022/01/20 02:52:14;;;;;;;45.38;26.75;;;;;;;-2.94;100.00;100922.56;5010021;28;20034;-65
2022/01/20 02:54:40;;;;;;;56.60;29.95;;;;;;;-3.03;100.00;100969.41;5025224;28;20477;-65
2022/01/20 02:57:06;;;;;;;47.80;29.15;;;;;;;-3.88;100.00;100860.53;5008675;28;20482;-65
2022/01/20 02:59:34;;;;;;;54.17;29.20;;;;;;;-3.02;100.00;100923.00;5010107;28;20527;-66
2022/01/20 03:02:00;;;;;;;52.97;30.35;;;;;;;-3.07;100.00;100965.09;5009840;28;20053;-66
2022/01/20 03:04:26;;;;;;;51.85;28.73;;;;;;;-2.89;100.00;100969.97;5008364;28;20701;-65
2022/01/20 03:06:52;;;;;;;57.83;31.38;;;;;;;-3.19;100.00;100981.13;5010255;28;20033;-65
2022/01/20 03:09:18;;;;;;;53.05;29.52;;;;;;;-3.24;100.00;100970.13;5010185;28;20105;-65
2022/01/20 03:11:43;;;;;;;48.90;27.98;;;;;;;-3.16;100.00;100932.38;5009618;28;20116;-65
2022/01/20 03:14:09;;;;;;;50.92;28.30;;;;;;;-3.59;100.00;100850.25;5009610;28;20037;-65
2022/01/20 03:16:34;;;;;;;63.80;33.55;;;;;;;-3.15;100.00;100920.81;5009770;28;20103;-65
2022/01/20 03:18:59;;;;;;;92.28;46.88;;;;;;;-3.39;100.00;100933.06;5009528;28;20033;-65
2022/01/20 03:21:25;;;;;;;94.20;46.28;;;;;;;-3.53;100.00;100904.28;5009809;28;20088;-64
2022/01/20 03:23:50;;;;;;;79.38;39.22;;;;;;;-3.61;100.00;100854.28;4998362;28;20038;-65
2022/01/20 03:26:16;;;;;;;65.38;35.67;;;;;;;-3.13;100.00;100952.38;5001898;28;20030;-67
2022/01/20 03:28:42;;;;;;;164.98;82.43;;;;;;;-3.23;100.00;100875.78;5009733;28;20582;-65
2022/01/20 03:31:07;;;;;;;130.38;66.93;;;;;;;-3.87;100.00;100887.09;5009328;28;20099;-65
2022/01/20 03:33:32;;;;;;;118.72;63.40;;;;;;;-2.83;100.00;100925.44;5009823;28;20055;-65
2022/01/20 03:35:58;;;;;;;81.57;46.20;;;;;;;-3.58;100.00;100953.75;5008576;28;20045;-66
2022/01/20 03:38:23;;;;;;;74.88;42.00;;;;;;;-3.36;100.00;100954.69;5009159;28;20060;-65
2022/01/20 03:40:50;;;;;;;79.85;45.95;;;;;;;-3.81;100.00;100899.75;5009286;28;20108;-67
2022/01/20 03:43:16;;;;;;;46.72;26.20;;;;;;;-3.35;100.00;100949.81;5008273;28;20495;-65
2022/01/20 03:45:42;;;;;;;41.72;24.00;;;;;;;-3.71;100.00;100958.13;5009348;28;20022;-65
2022/01/20 03:48:11;;;;;;;48.38;27.50;;;;;;;-3.51;100.00;100863.81;5009548;28;20096;-65
2022/01/20 03:53:22;;;;;;;59.25;31.00;;;;;;;-3.13;100.00;100932.50;5009145;28;20136;-65
2022/01/20 03:55:48;;;;;;;51.58;29.23;;;;;;;-3.36;100.00;100947.22;5008174;28;20033;-66
2022/01/20 03:58:13;;;;;;;46.17;27.60;;;;;;;-3.53;100.00;100845.50;5007776;28;20034;-65
2022/01/20 04:00:39;;;;;;;48.28;27.63;;;;;;;-3.65;100.00;100898.78;5009548;28;20080;-65
2022/01/20 04:03:04;;;;;;;77.00;37.05;;;;;;;-3.35;100.00;100905.06;5007016;28;20513;-65
2022/01/20 04:05:30;;;;;;;102.70;40.50;;;;;;;-3.89;100.00;100893.63;5009234;28;20022;-66
2022/01/20 04:07:55;;;;;;;218.65;73.28;;;;;;;-3.75;100.00;100842.91;5008064;28;20125;-65
2022/01/20 04:10:21;;;;;;;133.25;52.58;;;;;;;-3.33;100.00;100935.81;5009119;28;20030;-65
2022/01/20 04:12:46;;;;;;;123.28;52.60;;;;;;;-3.35;100.00;100939.00;5009210;28;20033;-65
2022/01/20 04:15:15;;;;;;;114.22;49.20;;;;;;;-3.94;100.00;100922.31;5008801;28;20092;-64
2022/01/20 04:17:42;;;;;;;88.70;42.58;;;;;;;-3.97;100.00;100939.59;5008708;28;20741;-66
2022/01/20 04:20:08;;;;;;;102.60;50.42;;;;;;;-3.54;100.00;100873.63;5007683;28;20030;-66
2022/01/20 04:22:34;;;;;;;98.80;49.30;;;;;;;-3.90;100.00;100864.59;5006032;28;20052;-66
2022/01/20 04:24:59;;;;;;;81.05;44.47;;;;;;;-3.79;100.00;100847.69;5008562;28;20034;-67
2022/01/20 04:27:24;;;;;;;72.20;39.10;;;;;;;-4.14;100.00;100868.47;5008453;28;20037;-66
2022/01/20 04:29:50;;;;;;;59.58;32.00;;;;;;;-3.83;100.00;100854.16;5008941;28;20034;-66
2022/01/20 04:32:16;;;;;;;56.72;31.30;;;;;;;-3.95;100.00;100875.09;5007198;28;20033;-67
2022/01/20 04:34:43;;;;;;;51.75;27.90;;;;;;;-3.76;100.00;100893.34;5007955;28;20103;-66
2022/01/20 04:37:08;;;;;;;47.40;25.38;;;;;;;-3.19;100.00;100906.56;5005378;28;20111;-69
2022/01/20 04:39:38;;;;;;;42.08;23.38;;;;;;;-3.88;100.00;100875.44;5007901;28;20129;-67
2022/01/20 04:42:04;;;;;;;44.10;23.25;;;;;;;-3.74;100.00;100920.72;5008489;28;20045;-72
2022/01/20 04:44:43;;;;;;;40.55;22.48;;;;;;;-3.61;100.00;100926.31;5007262;28;20034;-68
2022/01/20 04:57:48;;;;;;;43.63;25.58;;;;;;;-3.50;100.00;100909.38;4988545;28;20049;-69
2022/01/20 05:00:14;;;;;;;45.92;25.42;;;;;;;-4.23;100.00;100909.38;4988187;28;20042;-66
2022/01/20 05:02:39;;;;;;;46.10;26.70;;;;;;;-4.85;100.00;100825.50;4991277;28;20042;-66
2022/01/20 05:05:08;;;;;;;42.65;25.52;;;;;;;-4.00;100.00;100906.34;5011399;28;20079;-65
2022/01/20 05:07:33;;;;;;;47.80;25.88;;;;;;;-4.34;100.00;100864.25;5011254;28;20041;-66
2022/01/20 05:09:59;;;;;;;37.42;22.20;;;;;;;-4.33;100.00;100868.44;5011351;28;20121;-66
2022/01/20 05:12:35;;;;;;;40.53;23.83;;;;;;;-3.85;100.00;100855.72;5011348;28;20033;-66
2022/01/20 05:15:00;;;;;;;43.25;26.63;;;;;;;-3.63;100.00;100900.56;5011156;28;20037;-65
2022/01/20 05:17:26;;;;;;;77.97;44.55;;;;;;;-3.46;100.00;100912.84;5011201;28;20041;-64
2022/01/20 05:19:51;;;;;;;80.40;46.65;;;;;;;-3.74;100.00;100910.78;5011049;28;20030;-66
2022/01/20 05:22:16;;;;;;;81.22;44.38;;;;;;;-3.92;100.00;100816.50;5011309;28;20113;-66
2022/01/20 05:24:42;;;;;;;91.45;49.55;;;;;;;-3.82;100.00;100884.78;5010767;28;20432;-65
2022/01/20 05:27:07;;;;;;;96.75;50.22;;;;;;;-3.43;100.00;100865.78;5010953;28;20034;-67
2022/01/20 05:29:33;;;;;;;87.85;45.85;;;;;;;-3.52;100.00;100856.28;5009584;28;20026;-65
2022/01/20 05:31:58;;;;;;;87.20;49.72;;;;;;;-4.02;100.00;100858.25;5010766;28;20515;-67
2022/01/20 05:34:23;;;;;;;87.22;48.45;;;;;;;-3.95;100.00;100827.94;5009521;28;20033;-65
2022/01/20 05:36:49;;;;;;;88.75;47.47;;;;;;;-3.81;100.00;100855.06;5010709;28;20034;-65
2022/01/20 05:39:16;;;;;;;86.13;52.38;;;;;;;-3.65;100.00;100894.69;5010787;28;20475;-67
2022/01/20 05:41:41;;;;;;;102.15;57.38;;;;;;;-3.68;100.00;100887.09;5009015;28;20034;-66
2022/01/20 05:44:07;;;;;;;117.20;63.88;;;;;;;-3.97;100.00;100874.19;5010509;28;20534;-64
2022/01/20 05:46:41;;;;;;;118.00;61.35;;;;;;;-3.39;100.00;100887.47;5009453;28;20030;-66
2022/01/20 05:49:09;;;;;;;97.32;51.45;;;;;;;-1.53;100.00;100873.16;5010509;28;20022;-65
2022/01/20 05:51:39;;;;;;;115.15;61.22;;;;;;;-3.40;100.00;100833.59;5009214;28;20555;-66
2022/01/20 05:54:06;;;;;;;181.05;97.20;;;;;;;-3.72;100.00;100805.78;5010067;28;20050;-65
2022/01/20 05:56:32;;;;;;;135.50;78.25;;;;;;;-3.36;100.00;100885.97;5009171;28;20033;-66
2022/01/20 05:58:59;;;;;;;119.68;63.20;;;;;;;-3.41;100.00;100866.69;5008583;28;20037;-67
2022/01/20 06:01:26;;;;;;;114.63;64.93;;;;;;;-4.03;100.00;100819.31;5008709;28;20120;-66
2022/01/20 06:03:51;;;;;;;98.88;50.15;;;;;;;-3.82;100.00;100827.66;5009955;28;20050;-66
2022/01/20 06:06:17;;;;;;;106.03;53.67;;;;;;;-3.67;100.00;100868.06;5009874;28;20044;-66
2022/01/20 06:08:43;;;;;;;120.40;69.43;;;;;;;-3.96;100.00;100884.19;5009657;28;20038;-66
2022/01/20 06:11:09;;;;;;;120.45;68.35;;;;;;;-3.61;100.00;100866.72;5009308;28;20518;-66
2022/01/20 06:13:35;;;;;;;196.90;104.72;;;;;;;-3.69;100.00;100790.19;5009438;28;20030;-65
2022/01/20 06:16:01;;;;;;;107.95;60.30;;;;;;;-2.88;100.00;100859.78;5008239;28;20499;-65
2022/01/20 06:18:27;;;;;;;69.70;40.92;;;;;;;-2.99;100.00;100894.16;5010090;28;20033;-66
2022/01/20 06:20:53;;;;;;;60.28;30.40;;;;;;;-1.65;100.00;100867.75;5008866;28;20034;-66
2022/01/20 06:23:20;;;;;;;73.28;34.35;;;;;;;-0.56;100.00;100894.69;5010065;28;20033;-67
2022/01/20 06:25:46;;;;;;;78.82;33.53;;;;;;;-0.94;100.00;100829.44;5008796;28;20096;-65
2022/01/20 06:28:13;;;;;;;76.55;39.63;;;;;;;-1.06;100.00;100820.72;5010548;28;20033;-66
2022/01/20 06:30:38;;;;;;;86.95;43.33;;;;;;;0.39;100.00;100883.38;5010549;28;20164;-65
2022/01/20 06:33:04;;;;;;;97.10;53.97;;;;;;;0.98;100.00;100892.41;5010450;28;20077;-65
2022/01/20 06:35:31;;;;;;;72.13;46.47;;;;;;;1.40;100.00;100867.56;5010442;28;20030;-65
2022/01/20 06:37:56;;;;;;;68.13;41.47;;;;;;;-0.50;100.00;100834.97;5009022;28;20030;-65
2022/01/20 06:40:22;;;;;;;79.05;45.22;;;;;;;-0.17;100.00;100823.44;5010124;28;20087;-65
2022/01/20 06:42:48;;;;;;;62.25;40.00;;;;;;;-1.36;100.00;100864.59;5010159;28;20041;-65
2022/01/20 06:45:15;;;;;;;84.95;57.15;;;;;;;0.69;100.00;100835.81;5010355;28;20113;-65
2022/01/20 06:47:40;;;;;;;68.53;41.42;;;;;;;-0.48;100.00;100860.81;5010403;28;20037;-65
2022/01/20 06:50:08;;;;;;;60.90;39.03;;;;;;;1.10;100.00;100861.84;5010075;28;20034;-65
2022/01/20 06:52:34;;;;;;;50.60;31.75;;;;;;;1.73;100.00;100804.03;5008912;28;20117;-66
2022/01/20 06:55:05;;;;;;;53.72;35.78;;;;;;;3.42;92.42;100852.25;5010056;28;20069;-66
2022/01/20 06:57:30;;;;;;;49.78;32.05;;;;;;;2.99;89.60;100754.44;5014037;28;20026;-65
2022/01/20 06:59:56;;;;;;;43.33;30.60;;;;;;;3.26;88.39;100859.50;5013967;28;20022;-65
2022/01/20 07:02:21;;;;;;;40.90;28.35;;;;;;;2.49;93.88;100846.50;5013492;28;20136;-66
2022/01/20 07:04:47;;;;;;;39.60;29.10;;;;;;;3.24;85.30;100790.81;5013831;28;20108;-66
2022/01/20 07:07:14;;;;;;;51.80;33.30;;;;;;;4.63;80.09;100792.47;5012276;28;20113;-66
2022/01/20 07:09:40;;;;;;;40.13;26.92;;;;;;;5.23;75.28;100846.72;5013582;28;20025;-65
2022/01/20 07:12:05;;;;;;;35.85;24.85;;;;;;;3.88;72.95;100788.31;5013700;28;20030;-65
2022/01/20 07:14:31;;;;;;;49.55;33.63;;;;;;;4.39;79.60;100858.53;5012214;28;20030;-65
2022/01/20 07:16:57;;;;;;;71.63;47.65;;;;;;;3.69;77.58;100850.91;5013299;28;20415;-65
2022/01/20 07:19:23;;;;;;;77.88;52.10;;;;;;;3.78;79.01;100775.63;5013512;28;20057;-65
2022/01/20 07:21:48;;;;;;;78.60;53.83;;;;;;;4.58;78.37;100839.41;5011764;28;20124;-65
2022/01/20 07:24:14;;;;;;;82.72;57.25;;;;;;;2.05;86.80;100791.28;5013474;28;20407;-65
2022/01/20 07:26:39;;;;;;;84.57;55.95;;;;;;;1.46;100.00;100870.22;5013369;28;20506;-65
2022/01/20 07:29:05;;;;;;;90.22;58.70;;;;;;;0.75;100.00;100858.47;5013284;28;20555;-66
2022/01/20 07:31:30;;;;;;;105.95;64.35;;;;;;;0.64;100.00;100853.19;5012828;28;20048;-66
2022/01/20 07:33:57;;;;;;;93.10;61.28;;;;;;;0.33;100.00;100857.34;5013028;28;20056;-65
2022/01/20 07:36:22;;;;;;;109.63;74.65;;;;;;;-1.09;100.00;100809.00;5014125;28;20385;-66
2022/01/20 07:38:48;;;;;;;120.40;82.82;;;;;;;0.17;100.00;100832.72;5015832;28;20041;-65
2022/01/20 07:41:13;;;;;;;111.05;79.38;;;;;;;1.10;100.00;100835.16;5013438;28;20030;-66
2022/01/20 07:43:40;;;;;;;135.75;99.50;;;;;;;0.98;100.00;100839.88;5013383;28;20030;-65
2022/01/20 07:46:06;;;;;;;117.97;87.15;;;;;;;0.72;100.00;100788.34;5011480;28;20341;-65
2022/01/20 07:48:31;;;;;;;65.45;44.22;;;;;;;0.36;100.00;100838.25;5012763;28;20088;-65
2022/01/20 07:50:57;;;;;;;74.63;48.97;;;;;;;0.83;100.00;100842.81;5012689;28;20034;-65
2022/01/20 07:53:23;;;;;;;79.88;47.72;;;;;;;0.95;100.00;100799.75;5012396;28;20543;-65
2022/01/20 07:55:48;;;;;;;58.72;39.10;;;;;;;1.11;100.00;100796.78;5012954;28;20080;-65
2022/01/20 07:58:14;;;;;;;42.72;30.00;;;;;;;0.91;100.00;100860.56;5012941;28;20224;-65
2022/01/20 08:00:39;;;;;;;43.08;26.80;;;;;;;-0.07;100.00;100848.75;5012732;28;20431;-65
2022/01/20 08:03:05;;;;;;;45.80;27.45;;;;;;;0.19;100.00;100846.13;5011187;28;20052;-65
2022/01/20 08:05:31;;;;;;;44.28;30.13;;;;;;;0.49;100.00;100794.44;5012141;28;20052;-65
2022/01/20 08:07:56;;;;;;;46.08;30.70;;;;;;;0.79;100.00;100800.19;5012616;28;20414;-65
2022/01/20 08:10:22;;;;;;;42.88;28.33;;;;;;;1.13;100.00;100857.75;5012748;28;20411;-65
2022/01/20 08:12:47;;;;;;;70.70;44.75;;;;;;;0.52;100.00;100802.84;5012534;28;20057;-65
2022/01/20 08:15:14;;;;;;;61.63;42.00;;;;;;;1.40;100.00;100837.53;5012573;28;20104;-65
2022/01/20 08:17:41;;;;;;;52.97;36.40;;;;;;;1.92;100.00;100836.97;5011027;28;20103;-65
2022/01/20 08:20:07;;;;;;;150.05;88.88;;;;;;;1.55;100.00;100767.69;5012345;28;20439;-65
2022/01/20 08:22:36;;;;;;;46.92;31.75;;;;;;;0.96;100.00;100826.47;5011859;28;20033;-65
2022/01/20 08:25:05;;;;;;;40.67;26.55;;;;;;;0.63;100.00;100761.47;5012333;28;20026;-65
2022/01/20 08:27:30;;;;;;;38.75;26.17;;;;;;;1.41;100.00;100844.19;5011916;28;20033;-68
2022/01/20 08:29:56;;;;;;;78.15;47.78;;;;;;;0.68;100.00;100744.91;5012209;28;20029;-66
2022/01/20 08:32:21;;;;;;;54.80;34.80;;;;;;;1.42;100.00;100833.38;5012178;28;20053;-65
2022/01/20 08:34:47;;;;;;;53.65;33.70;;;;;;;1.85;100.00;100830.13;5010435;28;20411;-66
2022/01/20 08:37:12;;;;;;;50.75;31.58;;;;;;;1.31;100.00;100820.63;5011986;28;20034;-65
2022/01/20 08:39:41;;;;;;;44.03;25.80;;;;;;;1.24;100.00;100820.44;5012030;28;20030;-65
2022/01/20 08:42:07;;;;;;;49.72;31.80;;;;;;;1.05;100.00;100775.78;5011703;28;20091;-66
2022/01/20 08:44:33;;;;;;;47.95;30.70;;;;;;;0.87;100.00;100774.53;5011758;28;20030;-65
2022/01/20 08:47:01;;;;;;;48.38;25.75;;;;;;;0.94;100.00;100767.16;5012041;28;20384;-65
2022/01/20 08:49:27;;;;;;;36.47;23.13;;;;;;;1.23;100.00;100834.63;5011593;28;20100;-66
2022/01/20 08:51:53;;;;;;;34.90;21.77;;;;;;;1.42;100.00;100771.63;5011993;28;20529;-65
2022/01/20 08:54:19;;;;;;;34.05;22.42;;;;;;;1.00;100.00;100719.75;5011507;28;20545;-65
2022/01/20 08:56:44;;;;;;;27.98;17.45;;;;;;;1.32;100.00;100827.34;5011571;28;20611;-66
2022/01/20 08:59:11;;;;;;;37.60;21.25;;;;;;;1.14;100.00;100768.47;5011916;28;20415;-63
2022/01/20 09:01:39;;;;;;;287.85;171.70;;;;;;;1.48;100.00;100819.34;5011206;28;20515;-64
2022/01/20 09:04:05;;;;;;;36.22;24.35;;;;;;;1.21;100.00;100810.38;5011379;28;20496;-64
2022/01/20 09:06:31;;;;;;;30.13;19.98;;;;;;;1.38;100.00;100807.44;5011405;28;20045;-64
2022/01/20 09:08:57;;;;;;;36.25;21.63;;;;;;;1.71;100.00;100838.22;5011501;28;20511;-65
2022/01/20 09:11:24;;;;;;;31.58;18.90;;;;;;;1.11;100.00;100771.75;5009991;28;20025;-64
2022/01/20 09:16:37;;;;;;;34.03;22.60;;;;;;;1.79;100.00;100820.84;5011212;28;20060;-64
2022/01/20 09:19:03;;;;;;;42.47;25.55;;;;;;;2.15;100.00;100810.69;5010611;28;20428;-63
2022/01/20 09:21:29;;;;;;;38.60;23.00;;;;;;;1.63;100.00;100758.69;5011354;28;20041;-65
2022/01/20 09:23:55;;;;;;;28.30;17.48;;;;;;;1.88;100.00;100763.41;5009795;28;20034;-64
2022/01/20 09:26:22;;;;;;;27.48;18.05;;;;;;;2.25;100.00;100792.50;5011545;28;20032;-64
2022/01/20 09:28:47;;;;;;;28.45;18.10;;;;;;;2.33;100.00;100763.38;5009838;28;20490;-64
2022/01/20 09:31:13;;;;;;;92.95;37.63;;;;;;;2.34;100.00;100801.03;5010607;28;20105;-64
2022/01/20 09:33:39;;;;;;;50.67;23.85;;;;;;;2.36;100.00;100791.88;5010960;28;20480;-64
2022/01/20 09:36:09;;;;;;;31.75;18.58;;;;;;;2.09;100.00;100747.91;5011001;28;20030;-64
2022/01/20 09:38:36;;;;;;;81.45;31.92;;;;;;;2.39;100.00;100738.41;5010946;28;20034;-64
2022/01/20 09:41:03;;;;;;;28.73;17.48;;;;;;;2.57;100.00;100784.75;5011193;28;20104;-64
2022/01/20 09:43:28;;;;;;;29.70;19.52;;;;;;;2.39;100.00;100733.41;5009576;28;20476;-64
2022/01/20 09:45:55;;;;;;;30.55;21.00;;;;;;;2.70;100.00;100759.81;5011085;28;20091;-64
2022/01/20 09:48:22;;;;;;;76.90;29.20;;;;;;;3.11;100.00;100774.72;5011254;28;20096;-64
2022/01/20 09:50:48;;;;;;;32.50;21.00;;;;;;;2.89;100.00;100681.50;5010707;28;20030;-64
2022/01/20 09:53:14;;;;;;;65.65;31.88;;;;;;;3.14;100.00;100759.69;5009546;28;20061;-64
2022/01/20 09:55:40;;;;;;;31.30;20.08;;;;;;;3.04;100.00;100722.72;5010715;28;20060;-64
2022/01/20 09:58:07;;;;;;;49.40;25.23;;;;;;;3.22;100.00;100754.78;5010430;28;20448;-64
2022/01/20 10:00:33;;;;;;;36.35;21.20;;;;;;;2.88;100.00;100709.91;5009577;28;20129;-64
2022/01/20 10:03:00;;;;;;;46.15;27.17;;;;;;;3.57;100.00;100730.94;5010797;28;20161;-64
2022/01/20 10:05:34;;;;;;;39.80;25.90;;;;;;;3.70;100.00;100711.84;5010917;28;20404;-64
2022/01/20 10:08:23;;;;;;;37.33;24.10;;;;;;;3.93;100.00;100712.94;5010647;28;20038;-67
2022/01/20 10:10:52;;;;;;;87.25;31.75;;;;;;;3.58;100.00;100647.19;5010312;28;20018;-64
2022/01/20 10:13:42;;;;;;;46.03;24.65;;;;;;;4.22;100.00;100704.84;5010698;28;20030;-64
2022/01/20 10:16:14;;;;;;;57.53;26.20;;;;;;;4.36;100.00;100683.16;5007826;28;20038;-65
2022/01/20 10:18:48;;;;;;;41.65;23.08;;;;;;;4.66;100.00;100690.09;5010504;28;20038;-65
2022/01/20 10:21:15;;;;;;;25.95;17.33;;;;;;;3.99;99.65;100624.97;5010492;28;20030;-65
2022/01/20 10:23:47;;;;;;;41.45;23.77;;;;;;;4.06;99.32;100561.31;5010600;28;20543;-64
2022/01/20 10:26:22;;;;;;;;;;;;;;;4.92;94.81;100678.53;5010926;28;20026;-64
2022/01/20 10:28:58;;;;;;;50.55;30.58;;;;;;;4.77;93.60;100614.63;5011514;28;19913;-64
2022/01/20 10:31:40;;;;;;;42.35;25.13;;;;;;;4.62;89.89;100610.34;5014220;28;20022;-65
2022/01/20 10:34:30;;;;;;;29.75;21.38;;;;;;;4.89;87.88;100650.78;5014672;28;20514;-65
2022/01/20 10:37:06;;;;;;;48.97;32.85;;;;;;;5.31;87.96;100639.25;5012784;28;20084;-64
2022/01/20 10:39:42;;;;;;;34.78;22.30;;;;;;;5.43;86.32;100650.22;5012732;28;20395;-65
2022/01/20 10:42:17;;;;;;;23.35;15.63;;;;;;;5.12;81.16;100643.38;5012460;28;20030;-64
2022/01/20 10:44:53;;;;;;;30.25;18.60;;;;;;;5.69;81.19;100590.59;5014226;28;20026;-64
2022/01/20 10:47:22;;;;;;;26.60;17.88;;;;;;;5.90;76.73;100640.28;5014149;28;20116;-64
2022/01/20 10:49:49;;;;;;;31.05;19.15;;;;;;;5.47;76.63;100623.34;5013893;28;20113;-65
2022/01/20 10:52:18;;;;;;;29.35;17.63;;;;;;;5.20;75.01;100563.59;5013846;28;20230;-65
2022/01/20 10:54:47;;;;;;;32.17;23.23;;;;;;;5.78;74.85;100615.84;5012692;28;20163;-65
2022/01/20 10:57:15;;;;;;;27.75;17.08;;;;;;;5.67;74.46;100589.75;5013911;28;20034;-65
2022/01/20 10:59:52;;;;;;;27.90;16.92;;;;;;;5.95;72.99;100616.75;5013872;28;20061;-65
2022/01/20 11:02:28;;;;;;;24.85;15.63;;;;;;;5.42;75.90;100545.19;5013699;28;20045;-65
2022/01/20 11:04:54;;;;;;;23.73;17.17;;;;;;;5.94;74.72;100606.66;5012203;28;20459;-65
2022/01/20 11:07:20;;;;;;;25.42;17.90;;;;;;;5.80;72.63;100606.59;5013806;28;20034;-65
2022/01/20 11:09:50;;;;;;;38.75;22.77;;;;;;;5.91;73.39;100594.88;5013606;28;20022;-65
2022/01/20 11:12:17;;;;;;;30.98;22.63;;;;;;;6.06;74.40;100592.34;5013746;28;20025;-65
2022/01/20 11:14:45;;;;;;;30.10;17.30;;;;;;;6.35;75.07;100569.63;5013433;28;20030;-65
2022/01/20 11:17:26;;;;;;;27.63;17.67;;;;;;;6.60;74.37;100572.91;5013535;28;20495;-65
2022/01/20 11:19:52;;;;;;;22.15;14.10;;;;;;;6.55;73.11;100575.47;5013600;28;20030;-66
2022/01/20 11:22:20;;;;;;;27.25;19.25;;;;;;;6.54;70.82;100567.88;5013183;28;20495;-64
2022/01/20 11:24:57;;;;;;;22.17;16.42;;;;;;;7.22;68.61;100568.50;5013367;28;20030;-63
2022/01/20 11:27:34;;;;;;;31.52;22.50;;;;;;;6.87;66.90;100548.41;5013159;28;20115;-64
2022/01/20 11:30:01;;;;;;;27.30;19.08;;;;;;;6.73;66.38;100541.75;5013166;28;20486;-64
2022/01/20 11:32:29;;;;;;;23.05;16.42;;;;;;;7.39;65.77;100515.31;5013105;28;20029;-64
2022/01/20 11:34:57;;;;;;;23.88;16.80;;;;;;;7.28;64.64;100554.97;5013260;28;20033;-64
2022/01/20 11:37:24;;;;;;;24.00;16.77;;;;;;;7.36;64.36;100482.44;5013252;28;20034;-65
2022/01/20 11:39:53;;;;;;;24.67;17.25;;;;;;;7.25;62.83;100466.50;5013046;28;20033;-65
2022/01/20 11:42:25;;;;;;;21.45;14.38;;;;;;;7.08;63.24;100476.72;5012452;28;20113;-64
2022/01/20 11:44:51;;;;;;;;;;;;;;;7.73;62.41;100536.97;5013557;28;20057;-65
2022/01/20 11:47:16;;;;;;;20.45;14.00;;;;;;;7.78;61.67;100522.59;5012911;28;20372;-65
2022/01/20 11:49:45;;;;;;;24.55;17.63;;;;;;;7.48;61.22;100457.06;5011726;28;20026;-65
2022/01/20 11:52:23;;;;;;;20.10;13.43;;;;;;;7.55;60.38;100532.88;5012832;28;20133;-65
2022/01/20 11:54:48;;;;;;;22.23;15.20;;;;;;;7.43;59.29;100441.91;5012792;28;20065;-65
2022/01/20 11:57:21;;;;;;;28.98;19.25;;;;;;;8.25;58.32;100505.31;5012577;28;20077;-65
2022/01/20 11:59:47;;;;;;;15.30;10.70;;;;;;;7.96;55.57;100512.31;5012620;28;20484;-65
2022/01/20 12:02:32;;;;;;;19.40;14.23;;;;;;;8.37;56.25;100509.41;5012517;28;20050;-66
2022/01/20 12:04:58;;;;;;;18.65;14.45;;;;;;;8.56;56.41;100445.84;5012448;28;20033;-65
2022/01/20 12:07:29;;;;;;;21.23;14.23;;;;;;;7.95;57.65;100452.41;5012395;28;20029;-66
2022/01/20 12:10:24;;;;;;;22.97;14.60;;;;;;;8.35;57.41;100491.69;5012450;28;20045;-67
2022/01/20 12:12:49;;;;;;;19.88;12.95;;;;;;;8.12;57.26;100420.16;5011681;28;20045;-65
2022/01/20 12:15:21;;;;;;;22.25;16.33;;;;;;;8.83;57.16;100470.00;5012283;28;20041;-65
2022/01/20 12:17:55;;;;;;;17.50;11.48;;;;;;;8.68;54.20;100480.31;5012238;28;20046;-65